sensor_id;sensor_type;location;lat;lon;timestamp;P1;durP1;ratioP1;P2;durP2;ratioP2
6121;SDS011;3091;51.506;7.672;2024-01-07T00:01:17;68.67;;;64.23;;
6121;SDS011;3091;51.506;7.672;2024-01-07T00:03:43;66.80;;;62.90;;
6121;SDS011;3091;51.506;7.672;2024-01-07T00:06:10;69.20;;;65.10;;
6121;SDS011;3091;51.506;7.672;2024-01-07T00:08:36;65.63;;;61.30;;
6121;SDS011;3091;51.506;7.672;2024-01-07T00:11:02;62.57;;;58.70;;
6121;SDS011;3091;51.506;7.672;2024-01-07T00:13:28;64.90;;;61.10;;
6121;SDS011;3091;51.506;7.672;2024-01-07T00:15:54;62.47;;;58.70;;
6121;SDS011;3091;51.506;7.672;2024-01-07T00:18:21;62.90;;;59.00;;
6121;SDS011;3091;51.506;7.672;2024-01-07T00:20:49;67.07;;;63.07;;
6121;SDS011;3091;51.506;7.672;2024-01-07T00:23:15;67.30;;;63.20;;
6121;SDS011;3091;51.506;7.672;2024-01-07T00:25:41;67.90;;;63.50;;
6121;SDS011;3091;51.506;7.672;2024-01-07T00:28:07;69.60;;;65.60;;
6121;SDS011;3091;51.506;7.672;2024-01-07T00:30:33;71.13;;;66.50;;
6121;SDS011;3091;51.506;7.672;2024-01-07T00:32:59;68.30;;;64.30;;
6121;SDS011;3091;51.506;7.672;2024-01-07T00:35:25;68.97;;;64.67;;
6121;SDS011;3091;51.506;7.672;2024-01-07T00:37:51;70.60;;;66.00;;
6121;SDS011;3091;51.506;7.672;2024-01-07T00:40:17;67.40;;;63.13;;
6121;SDS011;3091;51.506;7.672;2024-01-07T00:42:43;66.97;;;62.87;;
6121;SDS011;3091;51.506;7.672;2024-01-07T00:45:09;72.07;;;67.63;;
6121;SDS011;3091;51.506;7.672;2024-01-07T00:47:35;70.50;;;66.27;;
6121;SDS011;3091;51.506;7.672;2024-01-07T00:50:01;67.57;;;63.67;;
6121;SDS011;3091;51.506;7.672;2024-01-07T00:52:27;71.50;;;67.03;;
6121;SDS011;3091;51.506;7.672;2024-01-07T00:54:53;73.93;;;68.43;;
6121;SDS011;3091;51.506;7.672;2024-01-07T00:57:19;71.40;;;67.27;;
6121;SDS011;3091;51.506;7.672;2024-01-07T00:59:45;68.57;;;64.50;;
6121;SDS011;3091;51.506;7.672;2024-01-07T01:02:11;64.27;;;60.47;;
6121;SDS011;3091;51.506;7.672;2024-01-07T01:04:40;68.20;;;64.20;;
6121;SDS011;3091;51.506;7.672;2024-01-07T01:07:06;66.33;;;62.13;;
6121;SDS011;3091;51.506;7.672;2024-01-07T01:09:33;67.57;;;63.20;;
6121;SDS011;3091;51.506;7.672;2024-01-07T01:11:59;64.60;;;60.60;;
6121;SDS011;3091;51.506;7.672;2024-01-07T01:14:25;66.63;;;62.40;;
6121;SDS011;3091;51.506;7.672;2024-01-07T01:16:51;70.93;;;66.30;;
6121;SDS011;3091;51.506;7.672;2024-01-07T01:19:17;68.20;;;64.00;;
6121;SDS011;3091;51.506;7.672;2024-01-07T01:21:44;66.47;;;62.57;;
6121;SDS011;3091;51.506;7.672;2024-01-07T01:24:10;69.40;;;65.10;;
6121;SDS011;3091;51.506;7.672;2024-01-07T01:26:36;75.70;;;70.20;;
6121;SDS011;3091;51.506;7.672;2024-01-07T01:29:04;65.30;;;60.93;;
6121;SDS011;3091;51.506;7.672;2024-01-07T01:31:30;71.27;;;66.63;;
6121;SDS011;3091;51.506;7.672;2024-01-07T01:33:56;69.27;;;65.17;;
6121;SDS011;3091;51.506;7.672;2024-01-07T01:36:22;69.93;;;65.93;;
6121;SDS011;3091;51.506;7.672;2024-01-07T01:38:49;74.10;;;69.60;;
6121;SDS011;3091;51.506;7.672;2024-01-07T01:41:15;71.17;;;67.03;;
6121;SDS011;3091;51.506;7.672;2024-01-07T01:43:41;65.53;;;61.63;;
6121;SDS011;3091;51.506;7.672;2024-01-07T01:46:07;65.47;;;61.57;;
6121;SDS011;3091;51.506;7.672;2024-01-07T01:48:35;64.77;;;60.97;;
6121;SDS011;3091;51.506;7.672;2024-01-07T01:51:01;68.37;;;63.97;;
6121;SDS011;3091;51.506;7.672;2024-01-07T01:53:27;75.60;;;70.63;;
6121;SDS011;3091;51.506;7.672;2024-01-07T01:55:55;69.93;;;65.70;;
6121;SDS011;3091;51.506;7.672;2024-01-07T01:58:22;75.57;;;69.97;;
6121;SDS011;3091;51.506;7.672;2024-01-07T02:00:48;74.37;;;69.50;;
6121;SDS011;3091;51.506;7.672;2024-01-07T02:03:16;69.67;;;65.67;;
6121;SDS011;3091;51.506;7.672;2024-01-07T02:05:42;72.07;;;67.43;;
6121;SDS011;3091;51.506;7.672;2024-01-07T02:08:10;72.70;;;68.13;;
6121;SDS011;3091;51.506;7.672;2024-01-07T02:10:37;74.27;;;69.20;;
6121;SDS011;3091;51.506;7.672;2024-01-07T02:13:03;69.07;;;64.90;;
6121;SDS011;3091;51.506;7.672;2024-01-07T02:15:31;71.20;;;66.93;;
6121;SDS011;3091;51.506;7.672;2024-01-07T02:18:02;66.77;;;62.80;;
6121;SDS011;3091;51.506;7.672;2024-01-07T02:20:28;67.40;;;63.50;;
6121;SDS011;3091;51.506;7.672;2024-01-07T02:22:56;71.30;;;66.30;;
6121;SDS011;3091;51.506;7.672;2024-01-07T02:25:25;69.70;;;65.50;;
6121;SDS011;3091;51.506;7.672;2024-01-07T02:27:51;71.90;;;67.67;;
6121;SDS011;3091;51.506;7.672;2024-01-07T02:30:17;74.07;;;69.67;;
6121;SDS011;3091;51.506;7.672;2024-01-07T02:32:43;73.07;;;68.80;;
6121;SDS011;3091;51.506;7.672;2024-01-07T02:35:09;74.70;;;70.30;;
6121;SDS011;3091;51.506;7.672;2024-01-07T02:37:35;77.03;;;72.73;;
6121;SDS011;3091;51.506;7.672;2024-01-07T02:40:01;78.10;;;73.80;;
6121;SDS011;3091;51.506;7.672;2024-01-07T02:42:27;78.67;;;74.03;;
6121;SDS011;3091;51.506;7.672;2024-01-07T02:44:53;83.50;;;78.47;;
6121;SDS011;3091;51.506;7.672;2024-01-07T02:47:21;88.17;;;82.17;;
6121;SDS011;3091;51.506;7.672;2024-01-07T02:49:47;83.90;;;79.13;;
6121;SDS011;3091;51.506;7.672;2024-01-07T02:52:13;82.90;;;78.40;;
6121;SDS011;3091;51.506;7.672;2024-01-07T02:54:39;79.80;;;75.30;;
6121;SDS011;3091;51.506;7.672;2024-01-07T02:57:05;81.50;;;76.90;;
6121;SDS011;3091;51.506;7.672;2024-01-07T02:59:31;84.90;;;80.17;;
6121;SDS011;3091;51.506;7.672;2024-01-07T03:01:57;81.80;;;77.17;;
6121;SDS011;3091;51.506;7.672;2024-01-07T03:04:23;84.73;;;79.73;;
6121;SDS011;3091;51.506;7.672;2024-01-07T03:06:49;85.57;;;81.00;;
6121;SDS011;3091;51.506;7.672;2024-01-07T03:09:15;82.40;;;78.00;;
6121;SDS011;3091;51.506;7.672;2024-01-07T03:11:41;87.83;;;83.00;;
6121;SDS011;3091;51.506;7.672;2024-01-07T03:14:07;88.27;;;83.37;;
6121;SDS011;3091;51.506;7.672;2024-01-07T03:16:33;82.80;;;78.20;;
6121;SDS011;3091;51.506;7.672;2024-01-07T03:18:59;83.13;;;78.50;;
6121;SDS011;3091;51.506;7.672;2024-01-07T03:21:27;83.13;;;77.90;;
6121;SDS011;3091;51.506;7.672;2024-01-07T03:23:53;82.57;;;77.63;;
6121;SDS011;3091;51.506;7.672;2024-01-07T03:26:19;85.27;;;79.97;;
6121;SDS011;3091;51.506;7.672;2024-01-07T03:28:45;74.10;;;69.97;;
6121;SDS011;3091;51.506;7.672;2024-01-07T03:31:14;78.07;;;73.63;;
6121;SDS011;3091;51.506;7.672;2024-01-07T03:33:41;73.53;;;69.17;;
6121;SDS011;3091;51.506;7.672;2024-01-07T03:36:13;85.70;;;80.90;;
6121;SDS011;3091;51.506;7.672;2024-01-07T03:38:40;74.00;;;69.50;;
6121;SDS011;3091;51.506;7.672;2024-01-07T03:41:06;78.17;;;73.40;;
6121;SDS011;3091;51.506;7.672;2024-01-07T03:43:32;72.70;;;68.20;;
6121;SDS011;3091;51.506;7.672;2024-01-07T03:45:58;75.37;;;70.80;;
6121;SDS011;3091;51.506;7.672;2024-01-07T03:48:24;74.10;;;69.73;;
6121;SDS011;3091;51.506;7.672;2024-01-07T03:50:51;77.30;;;72.13;;
6121;SDS011;3091;51.506;7.672;2024-01-07T03:53:17;64.37;;;60.40;;
6121;SDS011;3091;51.506;7.672;2024-01-07T03:55:43;72.33;;;67.23;;
6121;SDS011;3091;51.506;7.672;2024-01-07T03:58:09;63.00;;;59.10;;
6121;SDS011;3091;51.506;7.672;2024-01-07T04:00:36;62.87;;;59.17;;
6121;SDS011;3091;51.506;7.672;2024-01-07T04:03:02;62.37;;;58.13;;
6121;SDS011;3091;51.506;7.672;2024-01-07T04:05:30;61.03;;;56.87;;
6121;SDS011;3091;51.506;7.672;2024-01-07T04:07:58;59.97;;;56.17;;
6121;SDS011;3091;51.506;7.672;2024-01-07T04:10:24;56.77;;;53.37;;
6121;SDS011;3091;51.506;7.672;2024-01-07T04:12:50;53.93;;;50.63;;
6121;SDS011;3091;51.506;7.672;2024-01-07T04:15:16;52.70;;;49.40;;
6121;SDS011;3091;51.506;7.672;2024-01-07T04:17:42;50.77;;;47.63;;
6121;SDS011;3091;51.506;7.672;2024-01-07T04:20:08;48.97;;;45.40;;
6121;SDS011;3091;51.506;7.672;2024-01-07T04:22:34;40.40;;;37.80;;
6121;SDS011;3091;51.506;7.672;2024-01-07T04:25:00;40.90;;;38.40;;
6121;SDS011;3091;51.506;7.672;2024-01-07T04:27:26;40.57;;;37.90;;
6121;SDS011;3091;51.506;7.672;2024-01-07T04:29:52;39.97;;;36.97;;
6121;SDS011;3091;51.506;7.672;2024-01-07T04:32:18;40.67;;;37.50;;
6121;SDS011;3091;51.506;7.672;2024-01-07T04:34:45;37.20;;;34.40;;
6121;SDS011;3091;51.506;7.672;2024-01-07T04:37:11;38.37;;;35.50;;
6121;SDS011;3091;51.506;7.672;2024-01-07T04:39:37;32.90;;;30.47;;
6121;SDS011;3091;51.506;7.672;2024-01-07T04:42:03;30.50;;;28.40;;
6121;SDS011;3091;51.506;7.672;2024-01-07T04:44:29;33.97;;;31.70;;
6121;SDS011;3091;51.506;7.672;2024-01-07T04:46:55;31.97;;;29.70;;
6121;SDS011;3091;51.506;7.672;2024-01-07T04:49:21;29.53;;;27.63;;
6121;SDS011;3091;51.506;7.672;2024-01-07T04:51:47;34.03;;;30.97;;
6121;SDS011;3091;51.506;7.672;2024-01-07T04:54:13;27.97;;;26.07;;
6121;SDS011;3091;51.506;7.672;2024-01-07T04:56:39;32.63;;;30.13;;
6121;SDS011;3091;51.506;7.672;2024-01-07T04:59:05;28.70;;;26.80;;
6121;SDS011;3091;51.506;7.672;2024-01-07T05:01:34;33.33;;;30.60;;
6121;SDS011;3091;51.506;7.672;2024-01-07T05:04:00;31.33;;;29.00;;
6121;SDS011;3091;51.506;7.672;2024-01-07T05:06:26;25.70;;;24.10;;
6121;SDS011;3091;51.506;7.672;2024-01-07T05:08:52;28.00;;;26.30;;
6121;SDS011;3091;51.506;7.672;2024-01-07T05:11:18;27.80;;;25.90;;
6121;SDS011;3091;51.506;7.672;2024-01-07T05:13:44;29.10;;;27.13;;
6121;SDS011;3091;51.506;7.672;2024-01-07T05:16:17;31.30;;;28.70;;
6121;SDS011;3091;51.506;7.672;2024-01-07T05:18:44;29.57;;;27.40;;
6121;SDS011;3091;51.506;7.672;2024-01-07T05:21:13;25.20;;;23.70;;
6121;SDS011;3091;51.506;7.672;2024-01-07T05:23:40;27.50;;;25.57;;
6121;SDS011;3091;51.506;7.672;2024-01-07T05:26:05;30.10;;;27.80;;
6121;SDS011;3091;51.506;7.672;2024-01-07T05:28:31;27.00;;;25.10;;
6121;SDS011;3091;51.506;7.672;2024-01-07T05:30:57;24.83;;;23.20;;
6121;SDS011;3091;51.506;7.672;2024-01-07T05:33:23;27.70;;;25.40;;
6121;SDS011;3091;51.506;7.672;2024-01-07T05:35:49;30.73;;;28.20;;
6121;SDS011;3091;51.506;7.672;2024-01-07T05:38:15;26.03;;;24.40;;
6121;SDS011;3091;51.506;7.672;2024-01-07T05:40:41;31.90;;;29.10;;
6121;SDS011;3091;51.506;7.672;2024-01-07T05:43:07;24.40;;;22.80;;
6121;SDS011;3091;51.506;7.672;2024-01-07T05:45:33;22.73;;;21.37;;
6121;SDS011;3091;51.506;7.672;2024-01-07T05:47:59;26.60;;;24.80;;
6121;SDS011;3091;51.506;7.672;2024-01-07T05:50:25;26.27;;;24.30;;
6121;SDS011;3091;51.506;7.672;2024-01-07T05:52:51;26.10;;;24.30;;
6121;SDS011;3091;51.506;7.672;2024-01-07T05:55:17;23.40;;;21.83;;
6121;SDS011;3091;51.506;7.672;2024-01-07T05:57:44;30.60;;;28.23;;
6121;SDS011;3091;51.506;7.672;2024-01-07T06:00:10;28.67;;;26.53;;
6121;SDS011;3091;51.506;7.672;2024-01-07T06:02:37;26.73;;;24.90;;
6121;SDS011;3091;51.506;7.672;2024-01-07T06:05:04;24.80;;;23.27;;
6121;SDS011;3091;51.506;7.672;2024-01-07T06:07:32;27.80;;;26.00;;
6121;SDS011;3091;51.506;7.672;2024-01-07T06:09:59;29.10;;;26.90;;
6121;SDS011;3091;51.506;7.672;2024-01-07T06:12:25;26.83;;;25.03;;
6121;SDS011;3091;51.506;7.672;2024-01-07T06:14:51;25.47;;;23.87;;
6121;SDS011;3091;51.506;7.672;2024-01-07T06:17:17;25.00;;;23.47;;
6121;SDS011;3091;51.506;7.672;2024-01-07T06:19:43;26.53;;;24.93;;
6121;SDS011;3091;51.506;7.672;2024-01-07T06:22:09;25.90;;;24.40;;
6121;SDS011;3091;51.506;7.672;2024-01-07T06:24:35;30.37;;;28.10;;
6121;SDS011;3091;51.506;7.672;2024-01-07T06:27:01;31.33;;;28.90;;
6121;SDS011;3091;51.506;7.672;2024-01-07T06:29:29;28.37;;;26.43;;
6121;SDS011;3091;51.506;7.672;2024-01-07T06:31:55;26.20;;;24.50;;
6121;SDS011;3091;51.506;7.672;2024-01-07T06:34:21;26.77;;;25.27;;
6121;SDS011;3091;51.506;7.672;2024-01-07T06:36:47;31.27;;;28.43;;
6121;SDS011;3091;51.506;7.672;2024-01-07T06:39:13;27.47;;;24.83;;
6121;SDS011;3091;51.506;7.672;2024-01-07T06:41:39;26.90;;;25.00;;
6121;SDS011;3091;51.506;7.672;2024-01-07T06:44:05;26.00;;;24.47;;
6121;SDS011;3091;51.506;7.672;2024-01-07T06:46:31;27.43;;;25.80;;
6121;SDS011;3091;51.506;7.672;2024-01-07T06:49:01;27.47;;;25.73;;
6121;SDS011;3091;51.506;7.672;2024-01-07T06:51:27;28.77;;;26.63;;
6121;SDS011;3091;51.506;7.672;2024-01-07T06:53:53;27.93;;;26.10;;
6121;SDS011;3091;51.506;7.672;2024-01-07T06:56:19;25.33;;;24.03;;
6121;SDS011;3091;51.506;7.672;2024-01-07T06:58:45;26.47;;;24.97;;
6121;SDS011;3091;51.506;7.672;2024-01-07T07:01:11;26.30;;;24.77;;
6121;SDS011;3091;51.506;7.672;2024-01-07T07:03:39;24.70;;;23.40;;
6121;SDS011;3091;51.506;7.672;2024-01-07T07:06:06;25.77;;;24.17;;
6121;SDS011;3091;51.506;7.672;2024-01-07T07:08:32;26.23;;;24.73;;
6121;SDS011;3091;51.506;7.672;2024-01-07T07:10:58;30.03;;;28.23;;
6121;SDS011;3091;51.506;7.672;2024-01-07T07:13:24;29.63;;;27.20;;
6121;SDS011;3091;51.506;7.672;2024-01-07T07:15:50;26.33;;;24.93;;
6121;SDS011;3091;51.506;7.672;2024-01-07T07:18:16;29.17;;;27.33;;
6121;SDS011;3091;51.506;7.672;2024-01-07T07:20:42;27.93;;;25.70;;
6121;SDS011;3091;51.506;7.672;2024-01-07T07:23:08;23.73;;;22.47;;
6121;SDS011;3091;51.506;7.672;2024-01-07T07:25:34;26.50;;;24.80;;
6121;SDS011;3091;51.506;7.672;2024-01-07T07:28:00;25.80;;;24.30;;
6121;SDS011;3091;51.506;7.672;2024-01-07T07:30:26;28.30;;;26.17;;
6121;SDS011;3091;51.506;7.672;2024-01-07T07:32:52;24.87;;;23.47;;
6121;SDS011;3091;51.506;7.672;2024-01-07T07:35:18;27.17;;;25.13;;
6121;SDS011;3091;51.506;7.672;2024-01-07T07:37:44;27.23;;;25.30;;
6121;SDS011;3091;51.506;7.672;2024-01-07T07:40:10;23.53;;;22.13;;
6121;SDS011;3091;51.506;7.672;2024-01-07T07:42:38;26.43;;;24.63;;
6121;SDS011;3091;51.506;7.672;2024-01-07T07:45:04;25.70;;;24.03;;
6121;SDS011;3091;51.506;7.672;2024-01-07T07:47:30;24.90;;;23.40;;
6121;SDS011;3091;51.506;7.672;2024-01-07T07:49:56;25.20;;;23.23;;
6121;SDS011;3091;51.506;7.672;2024-01-07T07:52:23;26.43;;;24.23;;
6121;SDS011;3091;51.506;7.672;2024-01-07T07:54:53;24.37;;;22.67;;
6121;SDS011;3091;51.506;7.672;2024-01-07T07:57:20;22.23;;;20.97;;
6121;SDS011;3091;51.506;7.672;2024-01-07T07:59:47;26.10;;;24.17;;
6121;SDS011;3091;51.506;7.672;2024-01-07T08:02:14;27.10;;;24.93;;
6121;SDS011;3091;51.506;7.672;2024-01-07T08:04:40;21.17;;;19.97;;
6121;SDS011;3091;51.506;7.672;2024-01-07T08:07:09;23.60;;;22.00;;
6121;SDS011;3091;51.506;7.672;2024-01-07T08:09:35;24.43;;;22.93;;
6121;SDS011;3091;51.506;7.672;2024-01-07T08:12:04;24.63;;;23.00;;
6121;SDS011;3091;51.506;7.672;2024-01-07T08:14:31;26.23;;;24.23;;
6121;SDS011;3091;51.506;7.672;2024-01-07T08:16:57;22.67;;;21.40;;
6121;SDS011;3091;51.506;7.672;2024-01-07T08:19:23;24.33;;;22.40;;
6121;SDS011;3091;51.506;7.672;2024-01-07T08:21:49;26.53;;;24.43;;
6121;SDS011;3091;51.506;7.672;2024-01-07T08:24:15;22.90;;;21.57;;
6121;SDS011;3091;51.506;7.672;2024-01-07T08:26:41;22.77;;;21.57;;
6121;SDS011;3091;51.506;7.672;2024-01-07T08:29:07;23.13;;;21.83;;
6121;SDS011;3091;51.506;7.672;2024-01-07T08:31:33;26.77;;;25.10;;
6121;SDS011;3091;51.506;7.672;2024-01-07T08:33:59;24.80;;;23.30;;
6121;SDS011;3091;51.506;7.672;2024-01-07T08:36:25;26.83;;;25.33;;
6121;SDS011;3091;51.506;7.672;2024-01-07T08:38:51;29.00;;;26.70;;
6121;SDS011;3091;51.506;7.672;2024-01-07T08:41:17;27.30;;;25.90;;
6121;SDS011;3091;51.506;7.672;2024-01-07T08:43:43;28.07;;;26.20;;
6121;SDS011;3091;51.506;7.672;2024-01-07T08:46:12;29.80;;;27.83;;
6121;SDS011;3091;51.506;7.672;2024-01-07T08:48:39;28.53;;;26.80;;
6121;SDS011;3091;51.506;7.672;2024-01-07T08:51:05;27.27;;;25.40;;
6121;SDS011;3091;51.506;7.672;2024-01-07T08:53:32;31.60;;;29.00;;
6121;SDS011;3091;51.506;7.672;2024-01-07T08:55:58;23.37;;;22.27;;
6121;SDS011;3091;51.506;7.672;2024-01-07T08:58:24;26.17;;;24.87;;
6121;SDS011;3091;51.506;7.672;2024-01-07T09:00:50;24.87;;;23.57;;
6121;SDS011;3091;51.506;7.672;2024-01-07T09:03:16;26.27;;;24.90;;
6121;SDS011;3091;51.506;7.672;2024-01-07T09:05:43;27.10;;;25.43;;
6121;SDS011;3091;51.506;7.672;2024-01-07T09:08:09;24.20;;;23.00;;
6121;SDS011;3091;51.506;7.672;2024-01-07T09:10:36;24.53;;;23.23;;
6121;SDS011;3091;51.506;7.672;2024-01-07T09:13:05;26.03;;;24.63;;
6121;SDS011;3091;51.506;7.672;2024-01-07T09:15:31;24.43;;;23.33;;
6121;SDS011;3091;51.506;7.672;2024-01-07T09:17:57;25.83;;;24.37;;
6121;SDS011;3091;51.506;7.672;2024-01-07T09:20:23;24.73;;;23.60;;
6121;SDS011;3091;51.506;7.672;2024-01-07T09:22:49;24.83;;;23.63;;
6121;SDS011;3091;51.506;7.672;2024-01-07T09:25:15;25.20;;;23.90;;
6121;SDS011;3091;51.506;7.672;2024-01-07T09:27:41;25.67;;;24.27;;
6121;SDS011;3091;51.506;7.672;2024-01-07T09:30:11;25.20;;;23.90;;
6121;SDS011;3091;51.506;7.672;2024-01-07T09:32:39;26.10;;;24.70;;
6121;SDS011;3091;51.506;7.672;2024-01-07T09:35:06;24.97;;;23.73;;
6121;SDS011;3091;51.506;7.672;2024-01-07T09:37:32;25.13;;;23.80;;
6121;SDS011;3091;51.506;7.672;2024-01-07T09:39:59;23.70;;;22.57;;
6121;SDS011;3091;51.506;7.672;2024-01-07T09:42:25;26.23;;;24.90;;
6121;SDS011;3091;51.506;7.672;2024-01-07T09:44:51;26.73;;;25.00;;
6121;SDS011;3091;51.506;7.672;2024-01-07T09:47:17;25.47;;;24.07;;
6121;SDS011;3091;51.506;7.672;2024-01-07T09:49:45;23.83;;;22.63;;
6121;SDS011;3091;51.506;7.672;2024-01-07T09:52:12;23.30;;;22.17;;
6121;SDS011;3091;51.506;7.672;2024-01-07T09:54:38;24.07;;;22.57;;
6121;SDS011;3091;51.506;7.672;2024-01-07T09:57:05;23.93;;;22.60;;
6121;SDS011;3091;51.506;7.672;2024-01-07T09:59:32;22.40;;;21.40;;
6121;SDS011;3091;51.506;7.672;2024-01-07T10:01:58;22.87;;;21.90;;
6121;SDS011;3091;51.506;7.672;2024-01-07T10:04:24;23.43;;;22.30;;
6121;SDS011;3091;51.506;7.672;2024-01-07T10:06:51;23.40;;;22.27;;
6121;SDS011;3091;51.506;7.672;2024-01-07T10:09:19;21.10;;;20.20;;
6121;SDS011;3091;51.506;7.672;2024-01-07T10:11:45;21.80;;;20.90;;
6121;SDS011;3091;51.506;7.672;2024-01-07T10:14:11;21.87;;;20.97;;
6121;SDS011;3091;51.506;7.672;2024-01-07T10:16:37;22.80;;;21.80;;
6121;SDS011;3091;51.506;7.672;2024-01-07T10:19:05;22.40;;;21.30;;
6121;SDS011;3091;51.506;7.672;2024-01-07T10:21:32;24.13;;;22.87;;
6121;SDS011;3091;51.506;7.672;2024-01-07T10:24:11;23.33;;;22.40;;
6121;SDS011;3091;51.506;7.672;2024-01-07T10:26:40;22.00;;;20.90;;
6121;SDS011;3091;51.506;7.672;2024-01-07T10:29:07;21.83;;;20.90;;
6121;SDS011;3091;51.506;7.672;2024-01-07T10:31:33;21.07;;;20.27;;
6121;SDS011;3091;51.506;7.672;2024-01-07T10:33:59;24.10;;;22.80;;
6121;SDS011;3091;51.506;7.672;2024-01-07T10:36:25;21.03;;;20.13;;
6121;SDS011;3091;51.506;7.672;2024-01-07T10:38:52;21.90;;;20.90;;
6121;SDS011;3091;51.506;7.672;2024-01-07T10:41:19;22.37;;;21.37;;
6121;SDS011;3091;51.506;7.672;2024-01-07T10:43:48;22.07;;;20.90;;
6121;SDS011;3091;51.506;7.672;2024-01-07T10:46:14;20.60;;;19.80;;
6121;SDS011;3091;51.506;7.672;2024-01-07T10:48:45;20.13;;;19.33;;
6121;SDS011;3091;51.506;7.672;2024-01-07T10:51:13;20.27;;;19.37;;
6121;SDS011;3091;51.506;7.672;2024-01-07T10:53:40;19.20;;;18.50;;
6121;SDS011;3091;51.506;7.672;2024-01-07T10:56:08;19.23;;;18.43;;
6121;SDS011;3091;51.506;7.672;2024-01-07T10:58:37;19.30;;;18.50;;
6121;SDS011;3091;51.506;7.672;2024-01-07T11:01:03;19.73;;;18.83;;
6121;SDS011;3091;51.506;7.672;2024-01-07T11:03:40;17.33;;;16.67;;
6121;SDS011;3091;51.506;7.672;2024-01-07T11:06:11;18.53;;;17.83;;
6121;SDS011;3091;51.506;7.672;2024-01-07T11:08:46;16.80;;;16.20;;
6121;SDS011;3091;51.506;7.672;2024-01-07T11:11:15;18.13;;;17.20;;
6121;SDS011;3091;51.506;7.672;2024-01-07T11:13:41;17.43;;;16.73;;
6121;SDS011;3091;51.506;7.672;2024-01-07T11:16:08;18.33;;;17.63;;
6121;SDS011;3091;51.506;7.672;2024-01-07T11:18:38;17.90;;;17.30;;
6121;SDS011;3091;51.506;7.672;2024-01-07T11:21:04;18.33;;;17.63;;
6121;SDS011;3091;51.506;7.672;2024-01-07T11:23:34;19.27;;;18.20;;
6121;SDS011;3091;51.506;7.672;2024-01-07T11:26:05;17.93;;;17.23;;
6121;SDS011;3091;51.506;7.672;2024-01-07T11:31:17;17.43;;;16.70;;
6121;SDS011;3091;51.506;7.672;2024-01-07T11:33:47;18.90;;;18.10;;
6121;SDS011;3091;51.506;7.672;2024-01-07T11:36:14;17.40;;;16.80;;
6121;SDS011;3091;51.506;7.672;2024-01-07T11:41:09;17.97;;;17.20;;
6121;SDS011;3091;51.506;7.672;2024-01-07T11:43:37;17.60;;;17.00;;
6121;SDS011;3091;51.506;7.672;2024-01-07T11:46:03;16.80;;;16.20;;
6121;SDS011;3091;51.506;7.672;2024-01-07T11:48:29;17.60;;;16.80;;
6121;SDS011;3091;51.506;7.672;2024-01-07T11:50:55;16.37;;;15.77;;
6121;SDS011;3091;51.506;7.672;2024-01-07T11:53:21;17.40;;;16.70;;
6121;SDS011;3091;51.506;7.672;2024-01-07T11:55:47;17.10;;;16.50;;
6121;SDS011;3091;51.506;7.672;2024-01-07T11:58:13;17.40;;;16.70;;
6121;SDS011;3091;51.506;7.672;2024-01-07T12:00:39;17.20;;;16.60;;
6121;SDS011;3091;51.506;7.672;2024-01-07T12:03:05;16.80;;;16.00;;
6121;SDS011;3091;51.506;7.672;2024-01-07T12:05:31;17.30;;;16.60;;
6121;SDS011;3091;51.506;7.672;2024-01-07T12:07:59;15.80;;;15.30;;
6121;SDS011;3091;51.506;7.672;2024-01-07T12:10:25;18.67;;;17.50;;
6121;SDS011;3091;51.506;7.672;2024-01-07T12:12:51;16.87;;;16.27;;
6121;SDS011;3091;51.506;7.672;2024-01-07T12:15:18;16.93;;;16.33;;
6121;SDS011;3091;51.506;7.672;2024-01-07T12:17:54;17.37;;;16.70;;
6121;SDS011;3091;51.506;7.672;2024-01-07T12:20:21;17.70;;;17.10;;
6121;SDS011;3091;51.506;7.672;2024-01-07T12:22:47;14.83;;;14.33;;
6121;SDS011;3091;51.506;7.672;2024-01-07T12:25:20;16.30;;;15.70;;
6121;SDS011;3091;51.506;7.672;2024-01-07T12:27:47;16.60;;;16.00;;
6121;SDS011;3091;51.506;7.672;2024-01-07T12:30:17;15.43;;;14.93;;
6121;SDS011;3091;51.506;7.672;2024-01-07T12:32:43;17.70;;;16.90;;
6121;SDS011;3091;51.506;7.672;2024-01-07T12:35:12;17.33;;;16.63;;
6121;SDS011;3091;51.506;7.672;2024-01-07T12:37:38;15.43;;;14.87;;
6121;SDS011;3091;51.506;7.672;2024-01-07T12:40:05;14.70;;;14.20;;
6121;SDS011;3091;51.506;7.672;2024-01-07T12:42:34;16.10;;;15.50;;
6121;SDS011;3091;51.506;7.672;2024-01-07T12:45:02;14.60;;;14.10;;
6121;SDS011;3091;51.506;7.672;2024-01-07T12:47:28;14.50;;;14.00;;
6121;SDS011;3091;51.506;7.672;2024-01-07T12:49:54;14.83;;;14.17;;
6121;SDS011;3091;51.506;7.672;2024-01-07T12:52:23;16.03;;;15.20;;
6121;SDS011;3091;51.506;7.672;2024-01-07T12:54:49;15.37;;;14.67;;
6121;SDS011;3091;51.506;7.672;2024-01-07T12:57:15;14.20;;;13.70;;
6121;SDS011;3091;51.506;7.672;2024-01-07T12:59:41;14.40;;;13.90;;
6121;SDS011;3091;51.506;7.672;2024-01-07T13:02:07;15.40;;;14.80;;
6121;SDS011;3091;51.506;7.672;2024-01-07T13:04:34;15.77;;;15.07;;
6121;SDS011;3091;51.506;7.672;2024-01-07T13:07:00;14.87;;;14.27;;
6121;SDS011;3091;51.506;7.672;2024-01-07T13:09:26;15.40;;;14.80;;
6121;SDS011;3091;51.506;7.672;2024-01-07T13:11:52;15.03;;;14.43;;
6121;SDS011;3091;51.506;7.672;2024-01-07T13:14:18;15.30;;;14.60;;
6121;SDS011;3091;51.506;7.672;2024-01-07T13:16:44;15.57;;;14.97;;
6121;SDS011;3091;51.506;7.672;2024-01-07T13:19:10;14.70;;;14.20;;
6121;SDS011;3091;51.506;7.672;2024-01-07T13:21:36;14.60;;;14.10;;
6121;SDS011;3091;51.506;7.672;2024-01-07T13:24:02;15.20;;;14.60;;
6121;SDS011;3091;51.506;7.672;2024-01-07T13:26:28;15.53;;;14.83;;
6121;SDS011;3091;51.506;7.672;2024-01-07T13:28:54;15.20;;;14.70;;
6121;SDS011;3091;51.506;7.672;2024-01-07T13:31:20;14.90;;;14.30;;
6121;SDS011;3091;51.506;7.672;2024-01-07T13:33:49;14.53;;;14.03;;
6121;SDS011;3091;51.506;7.672;2024-01-07T13:36:15;15.33;;;14.73;;
6121;SDS011;3091;51.506;7.672;2024-01-07T13:38:41;15.00;;;14.50;;
6121;SDS011;3091;51.506;7.672;2024-01-07T13:41:07;14.00;;;13.50;;
6121;SDS011;3091;51.506;7.672;2024-01-07T13:43:34;14.43;;;13.90;;
6121;SDS011;3091;51.506;7.672;2024-01-07T13:46:02;13.60;;;13.20;;
6121;SDS011;3091;51.506;7.672;2024-01-07T13:48:28;13.87;;;13.37;;
6121;SDS011;3091;51.506;7.672;2024-01-07T13:50:55;14.60;;;14.00;;
6121;SDS011;3091;51.506;7.672;2024-01-07T13:53:23;14.40;;;13.80;;
6121;SDS011;3091;51.506;7.672;2024-01-07T13:55:49;15.67;;;14.97;;
6121;SDS011;3091;51.506;7.672;2024-01-07T13:58:15;15.13;;;14.63;;
6121;SDS011;3091;51.506;7.672;2024-01-07T14:00:41;14.33;;;13.73;;
6121;SDS011;3091;51.506;7.672;2024-01-07T14:03:07;15.00;;;14.30;;
6121;SDS011;3091;51.506;7.672;2024-01-07T14:05:33;15.60;;;15.00;;
6121;SDS011;3091;51.506;7.672;2024-01-07T14:07:59;14.20;;;13.70;;
6121;SDS011;3091;51.506;7.672;2024-01-07T14:10:25;14.90;;;14.40;;
6121;SDS011;3091;51.506;7.672;2024-01-07T14:12:51;14.33;;;13.83;;
6121;SDS011;3091;51.506;7.672;2024-01-07T14:15:17;16.43;;;15.30;;
6121;SDS011;3091;51.506;7.672;2024-01-07T14:17:44;14.27;;;13.67;;
6121;SDS011;3091;51.506;7.672;2024-01-07T14:20:10;15.73;;;15.13;;
6121;SDS011;3091;51.506;7.672;2024-01-07T14:22:36;13.67;;;13.17;;
6121;SDS011;3091;51.506;7.672;2024-01-07T14:25:02;14.27;;;13.70;;
6121;SDS011;3091;51.506;7.672;2024-01-07T14:27:28;15.87;;;15.27;;
6121;SDS011;3091;51.506;7.672;2024-01-07T14:29:54;15.00;;;14.50;;
6121;SDS011;3091;51.506;7.672;2024-01-07T14:32:21;15.10;;;14.30;;
6121;SDS011;3091;51.506;7.672;2024-01-07T14:34:48;15.13;;;14.43;;
6121;SDS011;3091;51.506;7.672;2024-01-07T14:37:15;14.90;;;14.40;;
6121;SDS011;3091;51.506;7.672;2024-01-07T14:39:41;15.83;;;14.97;;
6121;SDS011;3091;51.506;7.672;2024-01-07T14:42:07;15.73;;;14.67;;
6121;SDS011;3091;51.506;7.672;2024-01-07T14:44:34;14.53;;;14.03;;
6121;SDS011;3091;51.506;7.672;2024-01-07T14:47:00;15.27;;;14.67;;
6121;SDS011;3091;51.506;7.672;2024-01-07T14:49:26;15.33;;;14.73;;